This is the latest recevied weather packets stored in our database for station/object KA6AKH-13. If no packets are shown the sender has not sent any weather packets the latest 10 day(s).
| Time | Temp. | Humidity | Pressure | Rain* | Wind** | Luminosity | Snow |
|---|---|---|---|---|---|---|---|
| 1777972915 | 16.67° C | 62% | 1011.1 hPa | 0 mm | - | - | - |
| 1777972430 | 16.67° C | 62% | 1011.1 hPa | 0 mm | - | - | - |
| 1777972315 | 16.67° C | 62% | 1011.1 hPa | 0 mm | - | - | - |
| 1777970425 | 16.67° C | 65% | 1011.1 hPa | 0 mm | - | - | - |
| 1777969901 | 16.67° C | 66% | 1011.1 hPa | 0 mm | - | - | - |
| 1777969825 | 16.67° C | 66% | 1011.1 hPa | 0 mm | - | - | - |
| 1777969195 | 16.67° C | 66% | 1011 hPa | 0 mm | - | - | - |
| 1777967335 | 16.67° C | 65% | 1010.9 hPa | 0 mm | - | - | - |
| 1777966736 | 16.67° C | 65% | 1010.8 hPa | 0 mm | - | - | - |
| 1777965505 | 16.67° C | 65% | 1010.8 hPa | 0 mm | - | - | - |
| 1777964305 | 17.22° C | 64% | 1010.7 hPa | 0 mm | - | - | - |
| 1777962445 | 16.67° C | 64% | 1010.5 hPa | 0 mm | - | - | - |
| 1777961215 | 16.67° C | 66% | 1010.5 hPa | 0 mm | - | - | - |
| 1777959415 | 17.22° C | 65% | 1010.6 hPa | 0 mm | - | - | - |
| 1777958815 | 17.22° C | 63% | 1010.6 hPa | 0 mm | - | - | - |
| 1777958215 | 17.78° C | 62% | 1010.6 hPa | 0 mm | - | - | - |
| 1777957615 | 17.78° C | 61% | 1010.6 hPa | 0 mm | - | - | - |
| 1777957015 | 18.33° C | 60% | 1010.7 hPa | 0 mm | - | - | - |
| 1777954555 | 18.89° C | 57% | 1010.8 hPa | 0 mm | - | - | - |
| 1777954015 | 18.89° C | 57% | 1010.8 hPa | 0 mm | - | - | - |
| 1777953955 | 18.89° C | 57% | 1010.8 hPa | 0 mm | - | - | - |
| 1777953325 | 19.44° C | 57% | 1010.7 hPa | 0 mm | - | - | - |
| 1777952880 | 19.44° C | 56% | 1010.6 hPa | 0 mm | - | - | - |
| 1777952695 | 19.44° C | 56% | 1010.6 hPa | 0 mm | - | - | - |
| 1777950205 | 20° C | 53% | 1010.7 hPa | 0 mm | - | - | - |
* Rain latest hour (hover to see other rain measurements)
** Current wind speed in m/s (hover to see current wind gust speed)